ENY3940 / N855AE 7700 Squawk Report (10th of October, 2018)

Aircraft E135 Reg No. N855AE Age N/A
Model ERJ-140 Jet engines 2 First flight 08-03
Registered 25-08-03 Rollout 08-03 Delivered 25-08-03
Construction No. 145747 Line No. N/A Series LR
ADSHEX ABB9F0 Airline name American Eagle Airlines Owner Envoy Air
Airfield based Dallas-Fort Worth~TX~N First tracked 2011-04-01 16:08:05

Flight history for N855AE

Route Flight No Date Playback
???? N/A 2018-10-16 16:09:00
La Guardia (LGA) - Memphis Intl (MEM) MQ3473 2018-10-16 00:25:00
Richmond Intl (RIC) - La Guardia (LGA) MQ3818 2018-10-16 00:14:00
Port Columbus (CMH) - La Guardia (LGA) MQ3499 2018-10-15 20:00:00
La Guardia (LGA) - Port Columbus (CMH) MQ3431 2018-10-15 00:44:00
Pittsburgh Intl (PIT) - La Guardia (LGA) MQ3815 2018-10-15 00:33:00
John F Kennedy Intl (JFK) - Pittsburgh Intl (PIT) MQ3653 2018-10-14 22:58:00
Port Columbus (CMH) - John F Kennedy Intl (JFK) MQ3935 2018-10-14 20:59:00
La Guardia (LGA) - Port Columbus (CMH) MQ3477 2018-10-14 14:46:00
Wilmington Intl (ILM) - La Guardia (LGA) MQ3780 2018-10-14 14:35:00
La Guardia (LGA) - Wilmington Intl (ILM) MQ3550 2018-10-14 00:18:00
Bangor Intl (BGR) - La Guardia (LGA) MQ4023 2018-10-14 00:06:00
Bangor Intl (BGR) - La Guardia (LGA) MQ3622 2018-10-13 18:01:00
Port Columbus (CMH) - La Guardia (LGA) MQ3616 2018-10-13 13:13:00
La Guardia (LGA) - Port Columbus (CMH) MQ3851 2018-10-12 21:57:00
Roanoke Regional (ROA) - La Guardia (LGA) MQ3546 2018-10-12 21:49:00
Richmond Intl (RIC) - La Guardia (LGA) MQ3776 2018-10-12 15:48:00
La Guardia (LGA) - Richmond Intl (RIC) MQ3818 2018-10-11 20:34:00
John F Kennedy Intl (JFK) - La Guardia (LGA) MQ9790 2018-10-11 03:37:00
???? N/A 2018-10-11 03:28:00
Time Lat Lon Altitude Heading Speed Vertical Rate
2018-10-10 20:48:24 GMT 40.660400 -73.755280 350 209 121 -576
2018-10-10 20:48:19 GMT 40.662495 -73.754028 475 209 121 -576
2018-10-10 20:48:06 GMT 40.668919 -73.749222 500 207 125 -640
2018-10-10 20:47:53 GMT 40.675205 -73.744919 625 48 233 0
2018-10-10 20:47:42 GMT 40.681583 -73.740608 0 48 233 0
2018-10-10 20:47:36 GMT 40.683395 -73.739487 850 48 233 0
2018-10-10 20:47:20 GMT 40.692383 -73.735428 0 48 233 0
2018-10-10 20:47:14 GMT 40.695316 -73.733803 1,125 48 233 0
2018-10-10 20:47:01 GMT 40.704113 -73.728500 1,225 48 233 0
2018-10-10 20:46:52 GMT 40.708584 -73.726875 1,375 48 233 0
2018-10-10 20:46:45 GMT 40.713982 -73.722382 1,500 48 233 0
2018-10-10 20:46:31 GMT 40.721199 -73.716576 1,625 48 233 0
2018-10-10 20:46:19 GMT 40.733997 -73.711205 1,775 48 233 0
2018-10-10 20:46:12 GMT 40.737118 -73.708900 1,925 250 162 0
2018-10-10 20:46:01 GMT 40.740982 -73.699722 1,925 253 164 0
2018-10-10 20:45:47 GMT 40.745918 -73.687172 1,925 259 171 0
2018-10-10 20:45:39 GMT 40.747406 -73.679314 1,925 260 171 0
2018-10-10 20:45:26 GMT 40.749409 -73.663582 1,925 259 170 0
2018-10-10 20:45:13 GMT 40.751179 -73.652405 1,925 48 233 0
2018-10-10 20:45:06 GMT 40.752201 -73.645416 1,925 48 233 0
2018-10-10 20:44:59 GMT 40.753319 -73.636116 1,925 48 233 0
2018-10-10 20:44:47 GMT 40.756485 -73.611519 1,925 48 233 0
2018-10-10 20:44:33 GMT 40.756485 -73.611519 1,925 6 191 192
2018-10-10 20:40:35 GMT 40.673714 -73.438423 1,925 6 191 192
2018-10-10 20:40:34 GMT 40.673714 -73.438423 1,925 6 191 192
2018-10-10 20:40:35 GMT 40.673714 -73.438423 1,925
2018-10-10 20:40:35 GMT 40.673714 -73.438423 1,925 6 191 192
2018-10-10 20:40:34 GMT 40.673714 -73.438423 1,925 288 193 -192
2018-10-10 20:40:34 GMT 40.673714 -73.438423 1,950 340 196 -64
2018-10-10 20:40:34 GMT 40.673714 -73.438423 1,900 16 202 0
2018-10-10 20:40:22 GMT 40.660587 -73.438423 1,925 16 202 0
2018-10-10 20:40:08 GMT 40.650299 -73.441170 1,925 16 202 0
2018-10-10 20:40:04 GMT 40.645924 -73.443413 1,925 16 202 0
2018-10-10 20:39:49 GMT 40.633121 -73.448097 1,925 16 199 64
2018-10-10 20:39:38 GMT 40.622787 -73.452408 1,925 16 199 64
2018-10-10 20:39:31 GMT 40.616222 -73.454407 1,925 16 199 64
2018-10-10 20:39:16 GMT 40.602394 -73.460205 1,925 18 208 -448
2018-10-10 20:39:10 GMT 40.596020 -73.462578 1,925 18 208 -448
2018-10-10 20:39:00 GMT 40.587315 -73.465385 1,925 18 208 -448
2018-10-10 20:38:49 GMT 40.576698 -73.469322 1,900 27 214 0
2018-10-10 20:38:36 GMT 40.566597 -73.473190 1,900 27 214 0
2018-10-10 20:38:27 GMT 40.558403 -73.477127 1,975 27 214 0
2018-10-10 20:38:14 GMT 40.545883 -73.483620 2,100 27 214 0
2018-10-10 20:38:07 GMT 40.540482 -73.486427 2,325 27 214 0
2018-10-10 20:37:52 GMT 40.520790 -73.496223 2,600 27 214 0
2018-10-10 20:37:47 GMT 40.520790 -73.496223 2,850 27 214 0
We lost coverage of the aircraft here for a total of 15 minutes
2018-10-10 20:23:11 GMT 40.665287 -73.753777 1,875 48 233 0
2018-10-10 20:23:11 GMT 40.665287 -73.753777 400 48 233 0
2018-10-10 20:23:00 GMT 40.670082 -73.750908 550 48 233 0
2018-10-10 20:22:44 GMT 40.678787 -73.744606 600 48 233 0
2018-10-10 20:22:36 GMT 40.680511 -73.742172 800 48 233 0
2018-10-10 20:22:19 GMT 40.691498 -73.734306 975 207 165 -832
2018-10-10 20:22:05 GMT 40.701508 -73.727371 1,150 207 172 -832
2018-10-10 20:21:56 GMT 40.706020 -73.724632 1,275 208 177 -896
2018-10-10 20:21:42 GMT 40.717987 -73.716202 1,400 207 178 -960
2018-10-10 20:21:35 GMT 40.722080 -73.714081 1,550 209 178 -960
2018-10-10 20:21:21 GMT 40.731998 -73.709023 1,750 48 233 0
2018-10-10 20:21:14 GMT 40.737213 -73.705711 1,900 212 187 -896
2018-10-10 20:21:04 GMT 40.744381 -73.702904 2,050 217 194 -832
2018-10-10 20:20:48 GMT 40.758392 -73.693977 2,200 223 206 -832
2018-10-10 20:20:41 GMT 40.763981 -73.690170 2,425 232 221 -384
2018-10-10 20:20:33 GMT 40.768402 -73.687988 2,550 232 221 -384
2018-10-10 20:20:19 GMT 40.780785 -73.677872 2,700 241 236 -64
2018-10-10 20:20:02 GMT 40.803223 -73.654030 2,900 264 185 0
2018-10-10 20:19:48 GMT 40.812115 -73.632683 2,900 298 134 -64
2018-10-10 20:19:37 GMT 40.812019 -73.623192 2,900 312 143 -64
2018-10-10 20:19:28 GMT 40.810390 -73.609085 2,900 335 129 -64
2018-10-10 20:19:17 GMT 40.806015 -73.603409 2,900 48 233 0
2018-10-10 20:19:06 GMT 40.798286 -73.586800 2,925 48 233 0
2018-10-10 20:18:54 GMT 40.798286 -73.586800 2,925 48 233 0
2018-10-10 20:18:46 GMT 40.780876 -73.587921 2,925 9 196 -256
2018-10-10 20:18:35 GMT 40.780876 -73.587921 2,900 48 233 0
2018-10-10 20:18:25 GMT 40.771290 -73.589920 2,900 9 198 -448
2018-10-10 20:18:13 GMT 40.761604 -73.591919 2,900 48 233 0
2018-10-10 20:18:01 GMT 40.750805 -73.594475 2,900 9 204 -768
2018-10-10 20:17:49 GMT 40.739120 -73.597099 2,950 9 204 -768
2018-10-10 20:17:44 GMT 40.735580 -73.597725 3,075 9 204 -768
2018-10-10 20:17:29 GMT 40.720592 -73.600906 3,375 9 205 -448
2018-10-10 20:17:23 GMT 40.716824 -73.601784 3,600 10 204 -64
2018-10-10 20:17:09 GMT 40.703693 -73.604401 3,825 10 204 -64
2018-10-10 20:17:03 GMT 40.695316 -73.606400 3,900 10 204 -64
2018-10-10 20:16:50 GMT 40.684422 -73.608772 3,900 11 209 -64
2018-10-10 20:16:38 GMT 40.673016 -73.611893 3,900 14 213 128
2018-10-10 20:16:27 GMT 40.662823 -73.614326 3,925 14 213 128
2018-10-10 20:16:16 GMT 40.650879 -73.617493 3,925 17 208 64
2018-10-10 20:16:08 GMT 40.645084 -73.619507 3,925 17 207 0
2018-10-10 20:15:58 GMT 40.635216 -73.623817 3,900 18 207 0
We lost coverage of the aircraft here for a total of 12 minutes
2018-10-10 20:04:19 GMT 40.624321 -73.781807 2,200 48 233 0
2018-10-10 20:04:19 GMT 40.629910 -73.778625 1,700 48 233 0
2018-10-10 20:04:11 GMT 40.629910 -73.778625 1,300 48 233 0
2018-10-10 20:03:55 GMT 40.639915 -73.771194 775 48 233 0
2018-10-10 20:03:50 GMT 40.643501 -73.766891 225 215 138 256
2018-10-10 20:03:23 GMT 40.658676 -73.757401 150 209 136 -704
2018-10-10 20:03:15 GMT 40.662495 -73.754776 300 209 136 -704
2018-10-10 20:03:09 GMT 40.666500 -73.752098 400 209 136 -704
2018-10-10 20:02:56 GMT 40.673389 -73.747292 650 209 132 -704
2018-10-10 20:02:46 GMT 40.679115 -73.742920 775 208 135 -704
2018-10-10 20:02:33 GMT 40.685120 -73.738922 825 208 135 -704
2018-10-10 20:02:20 GMT 40.693081 -73.733429 900 208 133 -640
2018-10-10 20:02:12 GMT 40.696712 -73.730682 1,025 208 134 -640
2018-10-10 20:02:07 GMT 40.700203 -73.728622 1,225 208 134 -640
2018-10-10 20:01:53 GMT 40.707417 -73.723877 1,275 48 233 0
2018-10-10 20:01:40 GMT 40.712120 -73.718575 1,400 48 233 0
2018-10-10 20:01:34 GMT 40.717194 -73.715324 1,500 48 233 0
2018-10-10 20:01:21 GMT 40.723293 -73.711205 1,650 205 154 -768
2018-10-10 20:01:06 GMT 40.732090 -73.706215 1,850 48 233 0
2018-10-10 20:00:58 GMT 40.736885 -73.703781 1,925 206 164 -832
2018-10-10 20:00:50 GMT 40.742985 -73.700974 2,050 48 233 0
2018-10-10 20:00:37 GMT 40.751595 -73.697472 2,225 48 233 0
2018-10-10 20:00:25 GMT 40.763515 -73.692795 2,400 48 233 0
2018-10-10 20:00:13 GMT 40.770683 -73.685303 2,550 48 233 0
2018-10-10 20:00:01 GMT 40.777477 -73.676186 2,700 48 233 0
2018-10-10 19:59:49 GMT 40.783020 -73.665825 2,825 48 233 0
2018-10-10 19:59:43 GMT 40.785301 -73.661392 2,900 48 233 0
2018-10-10 19:59:31 GMT 40.791492 -73.651283 2,875 48 233 0
2018-10-10 19:59:18 GMT 40.797405 -73.639793 2,900 48 233 0
2018-10-10 19:59:10 GMT 40.806622 -73.622627 2,900 236 168 64
2018-10-10 19:58:58 GMT 40.806622 -73.622627 2,900 236 168 64
2018-10-10 19:58:47 GMT 40.810486 -73.615013 2,900 238 168 64
2018-10-10 19:58:34 GMT 40.817795 -73.602783 2,925 238 168 64
2018-10-10 19:58:22 GMT 40.824078 -73.591919 2,900 252 160 -512
2018-10-10 19:58:15 GMT 40.826687 -73.587608 2,875 252 160 -512
2018-10-10 19:58:03 GMT 40.831108 -73.577499 2,875 252 160 -512
2018-10-10 19:57:49 GMT 40.834785 -73.563828 2,900 48 233 0
2018-10-10 19:57:45 GMT 40.836182 -73.558899 2,950 259 164 -704
2018-10-10 19:57:33 GMT 40.837997 -73.547974 3,000 259 164 -704
2018-10-10 19:57:18 GMT 40.840279 -73.532677 3,150 259 164 -704
2018-10-10 19:57:12 GMT 40.841022 -73.526001 3,325 259 164 -704
We lost coverage of the aircraft here for a total of 27 minutes
2018-10-10 19:29:45 GMT 41.371021 -73.380180 13,800 357 377 1216
2018-10-10 19:29:35 GMT 41.359287 -73.386673 13,800 214 165 1728
2018-10-10 19:29:23 GMT 41.332893 -73.402527 13,800 214 165 1728
2018-10-10 19:29:11 GMT 41.332893 -73.402527 13,800 47 231 2688
2018-10-10 19:28:58 GMT 41.317905 -73.412209 13,800 214 165 1728
2018-10-10 19:28:51 GMT 41.310921 -73.416389 13,800 24 276 -64
2018-10-10 19:28:41 GMT 41.295979 -73.425873 13,775 214 165 1728
2018-10-10 19:28:27 GMT 41.283222 -73.433990 13,800 357 377 1216
2018-10-10 19:28:22 GMT 41.274891 -73.438988 13,800 95 216 2560
2018-10-10 19:28:08 GMT 41.258411 -73.448471 13,800 48 235 2560
2018-10-10 19:27:55 GMT 41.243187 -73.457710 13,800 48 235 2560
2018-10-10 19:27:48 GMT 41.237415 -73.461082 13,800 48 235 2560
2018-10-10 19:27:38 GMT 41.224987 -73.468323 13,800 23 279 64
2018-10-10 19:27:26 GMT 41.210182 -73.476624 13,800 48 235 2560
2018-10-10 19:27:14 GMT 41.198917 -73.482681 13,800 214 165 1728
2018-10-10 19:27:07 GMT 41.192307 -73.486610 13,800 48 235 2560
2018-10-10 19:26:46 GMT 41.164516 -73.504715 13,750 357 377 1216
2018-10-10 19:26:32 GMT 41.140820 -73.519882 13,825 357 377 1216
2018-10-10 19:26:25 GMT 41.118382 -73.532677 13,800 48 235 2560
2018-10-10 19:26:10 GMT 41.118382 -73.532677 13,800 48 235 2560
2018-10-10 19:26:04 GMT 41.113121 -73.536110 13,800 48 233 0
2018-10-10 19:25:54 GMT 41.097198 -73.545723 13,825 25 345 448
2018-10-10 19:25:38 GMT 41.076019 -73.558395 13,800 99 216 2560
2018-10-10 19:25:31 GMT 41.046318 -73.578125 13,725 48 235 2560
2018-10-10 19:25:18 GMT 41.046318 -73.578125 13,650 214 165 1728
2018-10-10 19:24:56 GMT 41.014523 -73.611580 13,450 48 235 2560
2018-10-10 19:24:50 GMT 40.977886 -73.614326 13,300 48 233 0
2018-10-10 19:24:36 GMT 40.964199 -73.610023 13,000 47 231 2688
2018-10-10 19:24:30 GMT 40.964199 -73.610023 12,550 48 235 0
2018-10-10 19:24:17 GMT 40.944508 -73.602905 12,675 48 233 0
2018-10-10 19:24:09 GMT 40.930496 -73.596413 12,525 354 342 832
2018-10-10 19:23:54 GMT 40.906384 -73.589920 12,525 214 165 1728
2018-10-10 19:23:48 GMT 40.894604 -73.583618 5,025 47 231 2688
2018-10-10 19:23:32 GMT 40.869606 -73.575813 12,275 8 318 512

Making use of Plane Finder data

You are free to use the raw flight data, aircraft information and images provided in this report for your own purposes provided the data is correctly attributed to Plane Finder. We ask that you please credit Plane Finder and link to planefinder.net in close proximity to the content.

Optionally one of the following logos (no smaller then 150x24px) can be used and must link to planefinder.net

Embedding the Plane Finder map

You are welcome to embed the Plane Finder playback map on your website to offer visitors a more interactive experience. We suggest using the following HTML code:

<iframe src="//planefinder.net/data/report/ENY3940-N855AE-7700-squawk-2018-10-10/map" width="800" height="600" seamless="seamless"></iframe>

Where our data comes from

Plane Finder has a global network of data feeds and antenna radars that receive data broadcast directly from aircraft. The primary technologies used are ADS-B and MLAT. We also show feeds from the FAA and a FLARM glider feed.

Click here to find out more about the Plane Finder network.

How we collect our data